Widnes, United Kingdom
Current Conditions -  °F | °C
As of 6:20 AM on Sunday 21 Dec 2014 (Local Time) from EGGP Reporting Station
Scattered Clouds Scattered Clouds  
Wind Chill:   Ceiling: Unl
Heat Index:   Visibility: 6mi
Dew Point:   Wind: 14mph
Humidity: 76%   Direction: 240°WSW
Pressure: 30.24"   Gusts: NA
Location:  53.36°N, 2.73°W
Report Text: EGGP 210620Z 24012KT 9999 FEW030 SCT040 09/05 Q1024
Loading
Personal Weather Stations






























Interactive Weather Map New forecast layout! Learn more

10-Day Weather Forecast

Advertisements
Track Severe Weather on mobile